Terminal Aerodrome Forecast
Issued by NWS Mt. Holly, NJ

Home | Current Version | Previous Version | Text Only | Print | Product List | Glossary On
Versions: 1 2 3 4 5 6 7 8 9 10 11 12 13 14 15 16 17 18 19 20
964
FTUS41 KPHI 070559
TAFTTN
TAF
KTTN 070559Z 0706/0806 04008KT 3SM -DZ BR OVC005
     FM071000 04006KT 2SM BR OVC007
     FM071500 36005KT 4SM BR SCT007 OVC014
     FM071800 32007KT P6SM BKN020
     FM072000 31009KT P6SM BKN035 BKN120
     FM072300 30003KT P6SM SCT150=

USA.gov is the U.S. government's official web portal to all federal, state and local government web resources and services.